Terminal Aerodrome Forecast
Issued by NWS

Home | Current Version | Previous Version | Text Only | Print | Product List | Glossary On
Versions: 1 2 3 4 5 6 7 8 9 10 11 12 13 14 15 16 17 18 19 20 21
000
FTUS45 KBOU 262335
TAFAPA
TAF
KAPA 262335Z 2700/2724 35008KT P6SM SCT100 BKN140 BKN200
     FM270100 15012KT P6SM SCT080 BKN150
     FM270600 21009KT P6SM FEW200
     FM271500 27006KT P6SM SCT120 SCT220
     FM271800 01007KT P6SM SCT080 BKN180=

USA.gov is the U.S. government's official web portal to all federal, state and local government web resources and services.